createdAt,value
2023-02-05T00:00:06.771Z,17.00
2023-02-05T00:02:33.432Z,17.03
2023-02-05T00:05:00.171Z,16.50
2023-02-05T00:07:26.836Z,16.97
2023-02-05T00:09:53.456Z,15.30
2023-02-05T00:12:20.052Z,14.70
2023-02-05T00:14:46.657Z,14.90
2023-02-05T00:17:13.280Z,15.37
2023-02-05T00:19:39.915Z,15.70
2023-02-05T00:22:06.560Z,17.77
2023-02-05T00:24:33.296Z,15.63
2023-02-05T00:27:00.111Z,16.50
2023-02-05T00:29:26.790Z,16.90
2023-02-05T00:31:53.430Z,16.90
2023-02-05T00:34:20.132Z,16.33
2023-02-05T00:36:46.909Z,17.20
2023-02-05T00:39:14.769Z,16.30
2023-02-05T00:41:41.498Z,17.53
2023-02-05T00:44:08.171Z,16.97
2023-02-05T00:46:34.857Z,16.83
2023-02-05T00:49:01.580Z,17.57
2023-02-05T00:51:28.296Z,16.90
2023-02-05T00:53:55.806Z,17.17
2023-02-05T00:56:22.458Z,16.73
2023-02-05T00:58:51.227Z,16.77
2023-02-05T01:01:18.004Z,17.50
2023-02-05T01:03:45.094Z,16.80
2023-02-05T01:06:12.304Z,17.33
2023-02-05T01:08:39.975Z,17.03
2023-02-05T01:11:07.899Z,17.97
2023-02-05T01:13:34.530Z,17.53
2023-02-05T01:16:01.295Z,17.73
2023-02-05T01:18:27.923Z,17.87
2023-02-05T01:20:54.547Z,18.33
2023-02-05T01:23:21.376Z,19.07
2023-02-05T01:25:48.458Z,18.40
2023-02-05T01:28:15.156Z,18.77
2023-02-05T01:30:41.956Z,18.23
2023-02-05T01:33:09.219Z,19.23
2023-02-05T01:35:36.160Z,18.90
2023-02-05T01:38:02.936Z,20.43
2023-02-05T01:40:29.967Z,20.43
2023-02-05T01:42:56.619Z,19.53
2023-02-05T01:45:23.588Z,19.20
2023-02-05T01:47:51.692Z,20.20
2023-02-05T01:50:20.630Z,20.30
2023-02-05T01:52:47.281Z,19.23
2023-02-05T01:55:14.774Z,19.83
2023-02-05T01:57:41.611Z,21.40
2023-02-05T02:00:08.826Z,20.10
2023-02-05T02:02:41.745Z,20.20
2023-02-05T02:05:09.845Z,21.30
2023-02-05T02:07:36.720Z,19.57
2023-02-05T02:10:04.216Z,21.33
2023-02-05T02:12:33.998Z,22.27
2023-02-05T02:15:06.178Z,23.67
2023-02-05T02:17:39.264Z,23.33
2023-02-05T02:20:07.923Z,23.73
2023-02-05T02:22:58.062Z,24.70
2023-02-05T02:25:25.126Z,23.53
2023-02-05T02:28:09.848Z,22.60
2023-02-05T02:30:54.140Z,23.47
2023-02-05T02:33:20.838Z,24.90
2023-02-05T02:35:53.142Z,25.50
2023-02-05T02:38:25.715Z,24.83
2023-02-05T02:40:54.100Z,24.77
2023-02-05T02:43:26.741Z,24.37
2023-02-05T02:45:56.543Z,26.33
2023-02-05T02:48:24.547Z,26.20
2023-02-05T02:50:53.014Z,26.63
2023-02-05T02:53:25.372Z,26.67
2023-02-05T02:55:53.085Z,28.07
2023-02-05T02:58:29.911Z,26.70
2023-02-05T03:00:58.469Z,27.33
2023-02-05T03:03:30.099Z,26.17
2023-02-05T03:05:58.277Z,25.40
2023-02-05T03:08:28.862Z,28.43
2023-02-05T03:10:59.920Z,28.17
2023-02-05T03:13:28.026Z,28.07
2023-02-05T03:15:58.259Z,28.00
2023-02-05T03:18:25.232Z,28.60
2023-02-05T03:21:03.344Z,29.30
2023-02-05T03:23:31.334Z,27.00
2023-02-05T03:25:57.969Z,29.97
2023-02-05T03:28:35.088Z,28.37
2023-02-05T03:31:23.988Z,30.63
2023-02-05T03:34:10.989Z,30.10
2023-02-05T03:36:40.966Z,30.40
2023-02-05T03:39:08.429Z,32.27
2023-02-05T03:41:57.065Z,30.23
2023-02-05T03:44:36.654Z,29.97
2023-02-05T03:47:24.163Z,32.57
2023-02-05T03:49:53.682Z,32.83
2023-02-05T03:52:24.334Z,33.23
2023-02-05T03:55:12.861Z,31.43
2023-02-05T03:57:48.850Z,32.40
2023-02-05T04:00:16.726Z,32.43
2023-02-05T04:02:46.527Z,32.67
2023-02-05T04:05:21.194Z,33.17
2023-02-05T04:07:49.857Z,32.40
2023-02-05T04:10:19.313Z,31.13
2023-02-05T04:12:47.228Z,30.87
2023-02-05T04:15:14.465Z,30.83
2023-02-05T04:17:45.228Z,31.10
2023-02-05T04:20:12.083Z,31.63
2023-02-05T04:22:39.466Z,30.83
2023-02-05T04:25:06.296Z,31.70
2023-02-05T04:27:33.385Z,29.97
2023-02-05T04:30:02.114Z,29.13
2023-02-05T04:32:32.542Z,31.03
2023-02-05T04:34:59.276Z,30.57
2023-02-05T04:37:25.921Z,29.27
2023-02-05T04:39:52.807Z,30.37
2023-02-05T04:42:19.451Z,30.90
2023-02-05T04:44:46.075Z,27.10
2023-02-05T04:47:13.608Z,29.67
2023-02-05T04:49:40.977Z,29.10
2023-02-05T04:52:07.973Z,30.63
2023-02-05T04:54:35.962Z,27.93
2023-02-05T04:57:02.590Z,28.43
2023-02-05T04:59:30.416Z,27.37
2023-02-05T05:01:57.959Z,26.40
2023-02-05T05:04:24.641Z,27.20
2023-02-05T05:06:51.386Z,26.80
2023-02-05T05:09:20.749Z,26.90
2023-02-05T05:11:47.279Z,26.17
2023-02-05T05:14:13.838Z,26.67
2023-02-05T05:16:40.424Z,27.67
2023-02-05T05:19:07.033Z,28.43
2023-02-05T05:21:33.604Z,28.80
2023-02-05T05:24:00.302Z,27.97
2023-02-05T05:26:27.271Z,27.13
2023-02-05T05:28:54.757Z,28.57
2023-02-05T05:31:21.954Z,29.10
2023-02-05T05:33:48.782Z,29.07
2023-02-05T05:36:15.552Z,30.50
2023-02-05T05:38:42.519Z,30.87
2023-02-05T05:41:35.405Z,30.63
2023-02-05T05:44:01.997Z,30.67
2023-02-05T05:46:28.642Z,28.77
2023-02-05T05:48:56.493Z,30.03
2023-02-05T05:51:24.250Z,31.03
2023-02-05T05:53:51.163Z,30.00
2023-02-05T05:56:18.377Z,30.03
2023-02-05T05:58:45.600Z,31.27
2023-02-05T06:01:13.065Z,31.70
2023-02-05T06:03:39.670Z,31.90
2023-02-05T06:06:07.419Z,32.37
2023-02-05T06:08:34.413Z,33.63
2023-02-05T06:11:01.010Z,33.13
2023-02-05T06:13:27.762Z,32.60
2023-02-05T06:15:57.298Z,33.13
2023-02-05T06:18:24.067Z,32.27
2023-02-05T06:20:50.872Z,33.27
2023-02-05T06:23:17.860Z,32.00
2023-02-05T06:25:44.570Z,33.47
2023-02-05T06:28:11.425Z,32.70
2023-02-05T06:30:38.093Z,34.33
2023-02-05T06:33:05.485Z,32.80
2023-02-05T06:35:32.648Z,34.40
2023-02-05T06:37:59.402Z,31.70
2023-02-05T06:40:28.069Z,32.17
2023-02-05T06:42:55.035Z,33.57
2023-02-05T06:45:22.353Z,31.37
2023-02-05T06:47:49.573Z,31.90
2023-02-05T06:50:16.371Z,32.23
2023-02-05T06:52:43.008Z,33.03
2023-02-05T06:55:09.658Z,31.57
2023-02-05T06:57:36.580Z,29.77
2023-02-05T07:00:04.257Z,28.90
2023-02-05T07:02:31.038Z,29.70
2023-02-05T07:04:57.937Z,29.00
2023-02-05T07:07:24.811Z,28.33
2023-02-05T07:09:51.431Z,27.77
2023-02-05T07:12:18.147Z,27.70
2023-02-05T07:14:44.944Z,26.90
2023-02-05T07:17:11.832Z,26.30
2023-02-05T07:19:38.480Z,26.97
2023-02-05T07:22:05.270Z,27.33
2023-02-05T07:24:32.370Z,26.70
2023-02-05T07:26:59.162Z,26.37
2023-02-05T07:29:25.771Z,25.53
2023-02-05T07:31:52.504Z,25.97
2023-02-05T07:34:19.195Z,27.23
2023-02-05T07:36:45.785Z,25.93
2023-02-05T07:39:12.348Z,27.27
2023-02-05T07:41:39.001Z,24.00
2023-02-05T07:44:05.778Z,25.33
2023-02-05T07:46:32.669Z,24.50
2023-02-05T07:48:59.337Z,26.43
2023-02-05T07:51:26.776Z,25.80
2023-02-05T07:53:53.554Z,23.73
2023-02-05T07:56:23.247Z,23.80
2023-02-05T07:58:50.432Z,23.03
2023-02-05T08:01:17.368Z,22.73
2023-02-05T08:03:44.207Z,19.43
2023-02-05T08:06:14.027Z,18.73
2023-02-05T08:08:40.774Z,17.07
2023-02-05T08:11:07.867Z,16.70
2023-02-05T08:13:34.481Z,17.27
2023-02-05T08:16:04.511Z,17.10
2023-02-05T08:18:31.138Z,16.53
2023-02-05T08:20:58.253Z,15.57
2023-02-05T08:23:24.914Z,14.30
2023-02-05T08:25:54.935Z,14.67
2023-02-05T08:28:21.939Z,12.93
2023-02-05T08:30:48.933Z,9.57
2023-02-05T08:33:15.684Z,6.70
2023-02-05T08:35:42.502Z,5.97
2023-02-05T08:38:09.364Z,5.90
2023-02-05T08:40:36.551Z,3.27
2023-02-05T08:43:03.288Z,3.00
2023-02-05T08:45:30.102Z,2.60
2023-02-05T08:47:57.218Z,2.33
2023-02-05T08:50:23.979Z,2.10
2023-02-05T08:52:50.692Z,2.33
2023-02-05T08:55:20.249Z,2.20
2023-02-05T08:57:46.931Z,1.47
2023-02-05T09:00:15.102Z,1.93
2023-02-05T09:02:43.042Z,1.70
2023-02-05T09:05:10.017Z,1.77
2023-02-05T09:07:37.736Z,1.70
2023-02-05T09:10:05.809Z,1.20
2023-02-05T09:12:32.430Z,2.00
2023-02-05T09:14:59.137Z,1.10
2023-02-05T09:17:25.761Z,1.63
2023-02-05T09:19:52.388Z,1.43
2023-02-05T09:22:19.099Z,1.53
2023-02-05T09:24:45.660Z,1.90
2023-02-05T09:27:14.420Z,1.07
2023-02-05T09:29:41.345Z,1.47
2023-02-05T09:32:07.989Z,1.30
2023-02-05T09:34:34.675Z,1.20
2023-02-05T09:37:01.287Z,1.30
2023-02-05T09:40:11.840Z,1.30
2023-02-05T09:42:23.512Z,1.23
2023-02-05T09:45:08.884Z,1.40
2023-02-05T09:48:01.942Z,1.77
2023-02-05T09:50:32.063Z,1.77
2023-02-05T09:53:05.892Z,1.57
2023-02-05T09:55:41.681Z,1.97
2023-02-05T09:58:12.797Z,1.77
2023-02-05T10:00:45.020Z,1.77
2023-02-05T10:03:20.874Z,1.70
2023-02-05T10:05:59.089Z,1.80
2023-02-05T10:08:35.922Z,1.40
2023-02-05T10:11:04.466Z,1.77
2023-02-05T10:13:34.154Z,2.10
2023-02-05T10:16:00.864Z,1.70
2023-02-05T10:18:27.540Z,2.10
2023-02-05T10:20:54.094Z,2.07
2023-02-05T10:23:23.799Z,2.80
2023-02-05T10:26:09.439Z,2.07
2023-02-05T10:28:45.297Z,2.33
2023-02-05T10:31:12.137Z,2.03
2023-02-05T10:33:38.752Z,2.23
2023-02-05T10:36:06.898Z,2.10
2023-02-05T10:38:36.684Z,2.43
2023-02-05T10:41:14.417Z,2.60
2023-02-05T10:43:45.209Z,2.20
2023-02-05T10:46:15.803Z,1.97
2023-02-05T10:48:42.768Z,3.93
2023-02-05T10:51:14.012Z,2.37
2023-02-05T10:53:41.301Z,2.40
2023-02-05T10:56:08.556Z,2.87
2023-02-05T10:58:40.410Z,2.57
2023-02-05T11:01:33.506Z,2.50
2023-02-05T11:04:06.798Z,3.57
2023-02-05T11:06:38.132Z,2.53
2023-02-05T11:09:24.857Z,2.47
2023-02-05T11:11:52.656Z,2.17
2023-02-05T11:14:25.871Z,2.20
2023-02-05T11:16:53.399Z,2.93
2023-02-05T11:19:24.796Z,2.67
2023-02-05T11:22:01.284Z,2.20
2023-02-05T11:24:30.562Z,2.80
2023-02-05T11:27:15.510Z,2.80
2023-02-05T11:29:42.525Z,2.60
2023-02-05T11:32:19.855Z,2.73
2023-02-05T11:34:46.703Z,2.50
2023-02-05T11:37:17.204Z,1.93
2023-02-05T11:39:45.392Z,3.00
2023-02-05T11:42:19.185Z,3.10
2023-02-05T11:44:56.687Z,2.50
2023-02-05T11:47:34.593Z,2.90
2023-02-05T11:50:02.143Z,2.90
2023-02-05T11:52:34.794Z,3.10
2023-02-05T11:55:01.798Z,3.63
2023-02-05T11:57:34.241Z,2.97
2023-02-05T12:00:12.697Z,2.80
2023-02-05T12:02:43.539Z,3.30
2023-02-05T12:05:13.637Z,3.40
2023-02-05T12:07:45.357Z,3.17
2023-02-05T12:10:19.850Z,3.77
2023-02-05T12:12:58.759Z,3.30
2023-02-05T12:15:37.476Z,3.10
2023-02-05T12:18:13.808Z,3.57
2023-02-05T12:20:44.262Z,3.20
2023-02-05T12:23:14.073Z,2.77
2023-02-05T12:25:56.184Z,3.47
2023-02-05T12:28:35.056Z,3.03
2023-02-05T12:31:10.845Z,2.60
2023-02-05T12:33:46.799Z,2.80
2023-02-05T12:36:32.323Z,3.30
2023-02-05T12:39:08.301Z,3.50
2023-02-05T12:41:53.843Z,2.70
2023-02-05T12:44:27.866Z,3.03
2023-02-05T12:46:57.615Z,3.50
2023-02-05T12:50:00.603Z,2.83
2023-02-05T12:52:45.657Z,2.93
2023-02-05T12:55:14.721Z,2.80
2023-02-05T12:57:44.278Z,2.60
2023-02-05T13:00:17.656Z,3.23
2023-02-05T13:02:54.168Z,2.90
2023-02-05T13:05:30.957Z,3.23
2023-02-05T13:08:01.429Z,3.40
2023-02-05T13:10:31.040Z,3.00
2023-02-05T13:13:03.016Z,3.00
2023-02-05T13:15:39.480Z,2.57
2023-02-05T13:18:27.871Z,2.80
2023-02-05T13:21:23.989Z,2.60
2023-02-05T13:24:11.216Z,2.50
2023-02-05T13:27:04.431Z,2.40
2023-02-05T13:29:33.373Z,2.13
2023-02-05T13:32:15.905Z,2.30
2023-02-05T13:34:43.302Z,3.33
2023-02-05T13:37:11.271Z,2.37
2023-02-05T13:39:40.908Z,4.37
2023-02-05T13:42:33.763Z,2.93
2023-02-05T13:45:00.606Z,3.23
2023-02-05T13:47:37.665Z,2.47
2023-02-05T13:50:42.850Z,2.43
2023-02-05T13:53:27.694Z,2.63
2023-02-05T13:56:12.889Z,2.00
2023-02-05T13:58:45.847Z,3.07
2023-02-05T14:01:17.980Z,2.20
2023-02-05T14:03:55.995Z,2.47
2023-02-05T14:06:28.699Z,2.70
2023-02-05T14:09:18.465Z,2.57
2023-02-05T14:11:58.735Z,2.90
2023-02-05T14:14:29.920Z,3.03
2023-02-05T14:16:57.599Z,2.93
2023-02-05T14:19:25.927Z,2.00
2023-02-05T14:21:55.562Z,1.93
2023-02-05T14:24:25.421Z,2.07
2023-02-05T14:26:53.338Z,1.70
2023-02-05T14:29:38.384Z,1.57
2023-02-05T14:32:05.038Z,1.70
2023-02-05T14:34:31.699Z,1.80
2023-02-05T14:36:59.316Z,3.10
2023-02-05T14:39:30.341Z,1.80
2023-02-05T14:41:59.390Z,2.60
2023-02-05T14:44:26.169Z,2.47
2023-02-05T14:47:05.525Z,3.07
2023-02-05T14:49:36.825Z,2.63
2023-02-05T14:52:23.927Z,2.93
2023-02-05T14:54:57.341Z,2.97
2023-02-05T14:57:27.300Z,3.00
2023-02-05T14:59:55.751Z,4.00
2023-02-05T15:02:41.236Z,3.30
2023-02-05T15:05:13.988Z,3.47
2023-02-05T15:07:40.802Z,3.63
2023-02-05T15:10:13.540Z,3.03
2023-02-05T15:12:49.527Z,3.40
2023-02-05T15:15:27.939Z,2.87
2023-02-05T15:17:56.243Z,2.77
2023-02-05T15:20:25.873Z,2.90
2023-02-05T15:23:15.824Z,3.70
2023-02-05T15:25:45.339Z,3.20
2023-02-05T15:28:14.982Z,3.13
2023-02-05T15:31:02.074Z,3.13
2023-02-05T15:33:32.719Z,3.43
2023-02-05T15:36:00.827Z,3.57
2023-02-05T15:38:32.542Z,3.70
2023-02-05T15:40:59.570Z,2.30
2023-02-05T15:43:26.921Z,2.60
2023-02-05T15:46:01.663Z,3.03
2023-02-05T15:48:29.679Z,3.63
2023-02-05T15:50:59.513Z,2.73
2023-02-05T15:53:35.196Z,3.43
2023-02-05T15:56:12.471Z,3.60
2023-02-05T15:58:40.624Z,3.10
2023-02-05T16:01:07.507Z,3.87
2023-02-05T16:03:36.289Z,2.70
2023-02-05T16:06:03.002Z,3.80
2023-02-05T16:08:29.727Z,3.97
2023-02-05T16:11:01.972Z,3.47
2023-02-05T16:13:28.982Z,2.70
2023-02-05T16:16:02.748Z,2.67
2023-02-05T16:18:36.274Z,3.70
2023-02-05T16:21:29.264Z,3.20
2023-02-05T16:23:58.912Z,4.23
2023-02-05T16:26:39.117Z,3.17
2023-02-05T16:29:11.634Z,3.57
2023-02-05T16:31:47.118Z,3.37
2023-02-05T16:34:17.746Z,2.80
2023-02-05T16:36:46.600Z,3.13
2023-02-05T16:39:19.340Z,4.00
2023-02-05T16:41:46.336Z,3.30
2023-02-05T16:44:26.864Z,4.17
2023-02-05T16:47:13.609Z,3.70
2023-02-05T16:49:41.177Z,2.77
2023-02-05T16:52:48.487Z,3.77
2023-02-05T16:55:15.085Z,3.10
2023-02-05T16:57:42.311Z,3.93
2023-02-05T17:00:29.597Z,3.03
2023-02-05T17:03:00.981Z,3.43
2023-02-05T17:05:29.234Z,3.37
2023-02-05T17:07:56.490Z,3.13
2023-02-05T17:10:23.203Z,2.27
2023-02-05T17:12:52.806Z,3.07
2023-02-05T17:15:19.383Z,3.50
2023-02-05T17:17:49.484Z,3.60
2023-02-05T17:20:16.280Z,3.57
2023-02-05T17:23:12.423Z,4.63
2023-02-05T17:25:51.274Z,4.97
2023-02-05T17:28:28.007Z,4.13
2023-02-05T17:30:55.685Z,4.50
2023-02-05T17:33:26.669Z,4.37
2023-02-05T17:35:53.877Z,5.30
2023-02-05T17:38:20.713Z,9.33
2023-02-05T17:40:47.549Z,4.60
2023-02-05T17:43:15.279Z,4.33
2023-02-05T17:45:43.081Z,4.00
2023-02-05T17:48:10.406Z,4.70
2023-02-05T17:50:37.535Z,3.10
2023-02-05T17:53:04.506Z,4.27
2023-02-05T17:55:31.252Z,4.70
2023-02-05T17:57:57.866Z,4.73
2023-02-05T18:00:26.202Z,3.83
2023-02-05T18:02:54.755Z,3.80
2023-02-05T18:05:22.376Z,4.40
2023-02-05T18:07:56.638Z,4.23
2023-02-05T18:10:27.688Z,4.47
2023-02-05T18:12:55.775Z,3.60
2023-02-05T18:15:23.214Z,3.63
2023-02-05T18:17:49.861Z,3.73
2023-02-05T18:20:18.192Z,3.47
2023-02-05T18:22:44.903Z,3.90
2023-02-05T18:25:11.584Z,5.60
2023-02-05T18:27:38.161Z,4.50
2023-02-05T18:30:05.402Z,3.13
2023-02-05T18:32:32.546Z,4.57
2023-02-05T18:34:59.173Z,4.10
2023-02-05T18:37:26.598Z,3.57
2023-02-05T18:39:53.448Z,3.70
2023-02-05T18:42:20.106Z,3.83
2023-02-05T18:44:46.734Z,4.53
2023-02-05T18:47:16.083Z,3.77
2023-02-05T18:49:42.697Z,3.53
2023-02-05T18:52:10.364Z,3.67
2023-02-05T18:54:37.361Z,4.23
2023-02-05T18:57:04.133Z,3.27
2023-02-05T18:59:30.823Z,4.30
2023-02-05T19:01:57.617Z,3.53
2023-02-05T19:04:25.895Z,3.33
2023-02-05T19:06:53.749Z,4.07
2023-02-05T19:09:21.728Z,3.57
2023-02-05T19:11:48.606Z,4.40
2023-02-05T19:14:16.073Z,3.73
2023-02-05T19:16:43.302Z,4.27
2023-02-05T19:19:11.206Z,3.53
2023-02-05T19:21:37.955Z,3.43
2023-02-05T19:24:09.728Z,3.37
2023-02-05T19:26:37.919Z,4.70
2023-02-05T19:29:05.893Z,4.27
2023-02-05T19:31:33.863Z,4.73
2023-02-05T19:34:01.556Z,3.87
2023-02-05T19:36:28.829Z,5.10
2023-02-05T19:38:55.437Z,3.97
2023-02-05T19:41:23.973Z,4.47
2023-02-05T19:43:51.850Z,3.93
2023-02-05T19:46:19.564Z,4.40
2023-02-05T19:48:48.829Z,4.63
2023-02-05T19:51:15.711Z,4.87
2023-02-05T19:53:45.944Z,4.50
2023-02-05T19:56:13.935Z,4.33
2023-02-05T19:58:42.062Z,4.33
2023-02-05T20:01:13.096Z,4.07
2023-02-05T20:03:39.882Z,4.53
2023-02-05T20:06:06.798Z,3.90
2023-02-05T20:08:33.504Z,3.93
2023-02-05T20:11:01.472Z,4.53
2023-02-05T20:13:28.976Z,3.93
2023-02-05T20:15:55.805Z,3.57
2023-02-05T20:18:22.682Z,4.30
2023-02-05T20:20:49.466Z,3.53
2023-02-05T20:23:16.466Z,4.40
2023-02-05T20:25:43.109Z,3.23
2023-02-05T20:28:10.101Z,5.23
2023-02-05T20:30:55.366Z,4.30
2023-02-05T20:33:22.096Z,4.57
2023-02-05T20:35:48.972Z,3.67
2023-02-05T20:38:17.940Z,3.97
2023-02-05T20:40:44.653Z,3.97
2023-02-05T20:43:11.261Z,5.27
2023-02-05T20:45:38.035Z,4.50
2023-02-05T20:48:04.761Z,3.80
2023-02-05T20:50:31.382Z,4.33
2023-02-05T20:52:58.017Z,4.27
2023-02-05T20:55:24.693Z,4.90
2023-02-05T20:57:51.430Z,4.83
2023-02-05T21:00:20.074Z,3.80
2023-02-05T21:02:46.803Z,4.03
2023-02-05T21:05:13.460Z,3.13
2023-02-05T21:07:40.042Z,4.93
2023-02-05T21:10:06.923Z,4.47
2023-02-05T21:12:33.545Z,4.00
2023-02-05T21:15:00.188Z,4.43
2023-02-05T21:17:26.831Z,3.87
2023-02-05T21:19:53.565Z,3.13
2023-02-05T21:22:20.212Z,3.87
2023-02-05T21:24:46.833Z,4.07
2023-02-05T21:27:13.421Z,4.40
2023-02-05T21:29:40.084Z,4.90
2023-02-05T21:32:08.116Z,3.90
2023-02-05T21:34:34.760Z,3.27
2023-02-05T21:37:01.469Z,4.80
2023-02-05T21:39:28.480Z,4.47
2023-02-05T21:41:55.268Z,3.63
2023-02-05T21:44:22.106Z,4.10
2023-02-05T21:46:48.821Z,4.30
2023-02-05T21:49:15.573Z,3.97
2023-02-05T21:51:42.519Z,3.40
2023-02-05T21:54:10.514Z,5.67
2023-02-05T21:56:38.562Z,4.97
2023-02-05T21:59:05.425Z,4.47
2023-02-05T22:01:33.494Z,4.67
2023-02-05T22:04:02.037Z,3.87
2023-02-05T22:06:30.153Z,3.93
2023-02-05T22:08:57.714Z,5.40
2023-02-05T22:11:24.722Z,5.40
2023-02-05T22:13:52.867Z,4.43
2023-02-05T22:16:23.762Z,3.73
2023-02-05T22:18:51.560Z,4.27
2023-02-05T22:21:19.750Z,4.70
2023-02-05T22:23:49.230Z,4.70
2023-02-05T22:26:17.590Z,5.50
2023-02-05T22:28:44.348Z,4.70
2023-02-05T22:31:12.578Z,5.63
2023-02-05T22:33:39.940Z,5.27
2023-02-05T22:36:07.568Z,6.07
2023-02-05T22:38:34.912Z,6.33
2023-02-05T22:41:01.827Z,5.27
2023-02-05T22:43:29.018Z,5.07
2023-02-05T22:45:55.681Z,5.90
2023-02-05T22:48:22.367Z,4.13
2023-02-05T22:50:49.146Z,4.97
2023-02-05T22:53:15.845Z,5.57
2023-02-05T22:55:42.578Z,4.80
2023-02-05T22:58:10.034Z,5.63
2023-02-05T23:00:36.725Z,5.27
2023-02-05T23:03:03.493Z,5.63
2023-02-05T23:05:31.488Z,5.60
2023-02-05T23:07:58.542Z,5.67
2023-02-05T23:10:25.163Z,5.80
2023-02-05T23:12:51.881Z,6.43
2023-02-05T23:15:18.654Z,5.33
2023-02-05T23:17:45.309Z,5.40
2023-02-05T23:20:12.247Z,6.20
2023-02-05T23:22:39.010Z,5.50
2023-02-05T23:25:06.367Z,5.00
2023-02-05T23:27:33.336Z,5.40
2023-02-05T23:30:00.159Z,5.47
2023-02-05T23:32:26.900Z,5.93
2023-02-05T23:34:53.544Z,6.03
2023-02-05T23:37:20.186Z,5.60
2023-02-05T23:39:46.801Z,6.67
2023-02-05T23:42:13.450Z,5.17
2023-02-05T23:44:40.117Z,5.53
2023-02-05T23:47:07.027Z,5.83
2023-02-05T23:49:33.624Z,5.73
2023-02-05T23:52:00.255Z,5.70
2023-02-05T23:54:26.917Z,5.93
2023-02-05T23:56:54.697Z,6.07
2023-02-05T23:59:21.535Z,5.77
